AHY67 UBBB-ZBAA
Flight info
| Callsign | AHY67 |
|---|---|
| Flight time | N/A |
| Altitude | 37000 |
| Route | NAMAS DCT TABUN/K0872F370 DCT DIFNE/K0876F390 DCT BIMDO DCT TUROK DCT ANELI DCT ALILA/K0863S1190 DCT SALMO DCT NIRAV DCT OBLUT/K0874S1220 DCT DZ/K0880S1250 DCT KAMDU DCT KB DCT LAXAG DCT RURNU DCT TMR DCT OSUBA OSUBA7X |
| Aircraft | B772/H-SDE2E3FGHIJ5LORVWXY/LB1D1 |
Departure
| Time | 2026-05-07 08:30 |
|---|---|
| Airport | Heydar Aliyev International Airport (UBBB) |
Arrival
| Time | N/A |
|---|---|
| Airport | Beijing Capital International Airport (ZBAA) |
| Time | Latitude | Longitude | Altitude | Speed | Heading |
|---|---|---|---|---|---|
| 2026-05-07 08:29 | 40.45707 | 50.06323 | 23 ft | 0 kts | 359° |
| 2026-05-07 08:29 | 40.45710 | 50.06323 | 23 ft | 4 kts | 359° |
| 2026-05-07 08:30 | 40.46034 | 50.06318 | 23 ft | 91 kts | 360° |
| 2026-05-07 08:30 | 40.46967 | 50.06308 | 26 ft | 169 kts | 1° |
| 2026-05-07 08:30 | 40.48294 | 50.06276 | 457 ft | 200 kts | 359° |
| 2026-05-07 08:30 | 40.49764 | 50.06185 | 1279 ft | 215 kts | 356° |
| 2026-05-07 08:31 | 40.51196 | 50.05841 | 1941 ft | 214 kts | 345° |
| 2026-05-07 08:31 | 40.52682 | 50.05350 | 2530 ft | 222 kts | 349° |
| 2026-05-07 08:31 | 40.54227 | 50.04958 | 3116 ft | 230 kts | 351° |
| 2026-05-07 08:31 | 40.55589 | 50.04641 | 3613 ft | 237 kts | 351° |
| 2026-05-07 08:32 | 40.57237 | 50.04479 | 4182 ft | 243 kts | 7° |
| 2026-05-07 08:32 | 40.58844 | 50.05175 | 4729 ft | 250 kts | 32° |
| 2026-05-07 08:32 | 40.60140 | 50.06757 | 5308 ft | 259 kts | 57° |
| 2026-05-07 08:32 | 40.60811 | 50.08966 | 5875 ft | 268 kts | 83° |
| 2026-05-07 08:33 | 40.60741 | 50.11440 | 6457 ft | 277 kts | 99° |
| 2026-05-07 08:33 | 40.60426 | 50.13995 | 7045 ft | 284 kts | 100° |
| 2026-05-07 08:33 | 40.60152 | 50.16356 | 7569 ft | 286 kts | 99° |
| 2026-05-07 08:33 | 40.59864 | 50.19045 | 8162 ft | 292 kts | 99° |
| 2026-05-07 08:34 | 40.59591 | 50.21677 | 8729 ft | 294 kts | 99° |
| 2026-05-07 08:34 | 40.59314 | 50.24355 | 9304 ft | 299 kts | 100° |
| 2026-05-07 08:34 | 40.59032 | 50.27083 | 9882 ft | 301 kts | 100° |
| 2026-05-07 08:34 | 40.58673 | 50.29791 | 10486 ft | 303 kts | 108° |
| 2026-05-07 08:35 | 40.57943 | 50.32304 | 11043 ft | 303 kts | 119° |
| 2026-05-07 08:35 | 40.57088 | 50.34523 | 11662 ft | 306 kts | 120° |
| 2026-05-07 08:35 | 40.56116 | 50.37056 | 12289 ft | 312 kts | 120° |
| 2026-05-07 08:35 | 40.55136 | 50.39678 | 12801 ft | 320 kts | 119° |
| 2026-05-07 08:36 | 40.54151 | 50.42346 | 13505 ft | 328 kts | 119° |
| 2026-05-07 08:36 | 40.53153 | 50.45059 | 14093 ft | 335 kts | 119° |
| 2026-05-07 08:36 | 40.52128 | 50.47852 | 14647 ft | 342 kts | 119° |
| 2026-05-07 08:36 | 40.51073 | 50.50730 | 15273 ft | 349 kts | 119° |
| 2026-05-07 08:37 | 40.49996 | 50.53667 | 15866 ft | 356 kts | 119° |
| 2026-05-07 08:37 | 40.48906 | 50.56634 | 16445 ft | 362 kts | 119° |
| 2026-05-07 08:37 | 40.47816 | 50.59601 | 17035 ft | 368 kts | 119° |
| 2026-05-07 08:37 | 40.46683 | 50.62678 | 17626 ft | 373 kts | 119° |
| 2026-05-07 08:38 | 40.46049 | 50.64399 | 17954 ft | 376 kts | 120° |
| 2026-05-07 08:38 | 40.44899 | 50.67518 | 18533 ft | 381 kts | 120° |
| 2026-05-07 08:38 | 40.43735 | 50.70670 | 19107 ft | 386 kts | 120° |
| 2026-05-07 08:38 | 40.42556 | 50.73862 | 19679 ft | 390 kts | 121° |
| 2026-05-07 08:39 | 40.41352 | 50.77117 | 20257 ft | 394 kts | 121° |
| 2026-05-07 08:39 | 40.40155 | 50.80349 | 20818 ft | 397 kts | 121° |
| 2026-05-07 08:39 | 40.38977 | 50.83667 | 21385 ft | 403 kts | 116° |
| 2026-05-07 08:39 | 40.38141 | 50.87188 | 21950 ft | 410 kts | 107° |
| 2026-05-07 08:40 | 40.37729 | 50.90990 | 22522 ft | 417 kts | 97° |
| 2026-05-07 08:40 | 40.37799 | 50.94831 | 23087 ft | 423 kts | 86° |
| 2026-05-07 08:40 | 40.38352 | 50.98619 | 23644 ft | 427 kts | 76° |
| 2026-05-07 08:40 | 40.39371 | 51.02322 | 24231 ft | 429 kts | 69° |
| 2026-05-07 08:41 | 40.40525 | 51.05949 | 24811 ft | 429 kts | 68° |
| 2026-05-07 08:41 | 40.41670 | 51.09561 | 25392 ft | 429 kts | 69° |
| 2026-05-07 08:41 | 40.42819 | 51.13221 | 25984 ft | 428 kts | 69° |
| 2026-05-07 08:41 | 40.43946 | 51.16842 | 26573 ft | 427 kts | 69° |
| 2026-05-07 08:42 | 40.45073 | 51.20480 | 27166 ft | 425 kts | 69° |
| 2026-05-07 08:42 | 40.46177 | 51.24062 | 27751 ft | 421 kts | 69° |
| 2026-05-07 08:42 | 40.47267 | 51.27610 | 28340 ft | 417 kts | 69° |
| 2026-05-07 08:42 | 40.48334 | 51.31097 | 28915 ft | 412 kts | 69° |
| 2026-05-07 08:43 | 40.49399 | 51.34583 | 29502 ft | 406 kts | 69° |
| 2026-05-07 08:43 | 40.50440 | 51.37996 | 30079 ft | 399 kts | 70° |
| 2026-05-07 08:43 | 40.51474 | 51.41395 | 30497 ft | 396 kts | 70° |
| 2026-05-07 08:43 | 40.52489 | 51.44738 | 30798 ft | 395 kts | 70° |
| 2026-05-07 08:44 | 40.53490 | 51.48039 | 31090 ft | 394 kts | 70° |
| 2026-05-07 08:44 | 40.54498 | 51.51370 | 31388 ft | 393 kts | 70° |
| 2026-05-07 08:44 | 40.55476 | 51.54603 | 31679 ft | 392 kts | 70° |
| 2026-05-07 08:44 | 40.56485 | 51.57948 | 31799 ft | 397 kts | 70° |
| 2026-05-07 08:45 | 40.58562 | 51.64845 | 31841 ft | 414 kts | 70° |
| 2026-05-07 08:45 | 40.60727 | 51.72054 | 31854 ft | 432 kts | 71° |
| 2026-05-07 08:46 | 40.62968 | 51.79537 | 31864 ft | 452 kts | 70° |
| 2026-05-07 08:46 | 40.65308 | 51.87369 | 31879 ft | 471 kts | 70° |
| 2026-05-07 08:47 | 40.66515 | 51.91415 | 31889 ft | 482 kts | 70° |
| 2026-05-07 08:47 | 40.67750 | 51.95565 | 31897 ft | 492 kts | 70° |
| 2026-05-07 08:47 | 40.70305 | 52.04173 | 31913 ft | 513 kts | 70° |
| 2026-05-07 08:48 | 40.72911 | 52.12976 | 31932 ft | 533 kts | 70° |
| 2026-05-07 08:48 | 40.75647 | 52.22254 | 32225 ft | 546 kts | 70° |
| 2026-05-07 08:49 | 40.77018 | 52.26913 | 32579 ft | 548 kts | 70° |
| 2026-05-07 08:49 | 40.78375 | 52.31530 | 32957 ft | 549 kts | 70° |
| 2026-05-07 08:49 | 40.79750 | 52.36219 | 33280 ft | 551 kts | 70° |
| 2026-05-07 08:49 | 40.81138 | 52.40965 | 33544 ft | 555 kts | 70° |
| 2026-05-07 08:50 | 40.82509 | 52.45659 | 33848 ft | 558 kts | 70° |
| 2026-05-07 08:50 | 40.83888 | 52.50387 | 34175 ft | 558 kts | 70° |
| 2026-05-07 08:50 | 40.85277 | 52.55159 | 34495 ft | 559 kts | 70° |
| 2026-05-07 08:50 | 40.86660 | 52.59920 | 34689 ft | 563 kts | 70° |
| 2026-05-07 08:51 | 40.88024 | 52.64625 | 34886 ft | 566 kts | 70° |
| 2026-05-07 08:51 | 40.89455 | 52.69570 | 35100 ft | 568 kts | 71° |
| 2026-05-07 08:51 | 40.90828 | 52.74323 | 35246 ft | 570 kts | 70° |
| 2026-05-07 08:51 | 40.92238 | 52.79215 | 35385 ft | 572 kts | 71° |
| 2026-05-07 08:52 | 40.93674 | 52.84203 | 35519 ft | 573 kts | 71° |
| 2026-05-07 08:52 | 40.95101 | 52.89173 | 35672 ft | 573 kts | 71° |
| 2026-05-07 08:52 | 40.96520 | 52.94120 | 35790 ft | 575 kts | 71° |
| 2026-05-07 08:52 | 40.97949 | 52.99117 | 35869 ft | 576 kts | 71° |
| 2026-05-07 08:53 | 41.00774 | 53.09018 | 36018 ft | 577 kts | 71° |
| 2026-05-07 08:53 | 41.03606 | 53.18985 | 36125 ft | 578 kts | 71° |
| 2026-05-07 08:54 | 41.06433 | 53.28972 | 36270 ft | 577 kts | 71° |
| 2026-05-07 08:54 | 41.09241 | 53.38929 | 36425 ft | 576 kts | 71° |
| 2026-05-07 08:55 | 41.12054 | 53.48945 | 36490 ft | 577 kts | 70° |
| 2026-05-07 08:55 | 41.14859 | 53.58974 | 36511 ft | 578 kts | 70° |
| 2026-05-07 08:56 | 41.17617 | 53.68870 | 36535 ft | 578 kts | 71° |
| 2026-05-07 08:56 | 41.20432 | 53.79013 | 36516 ft | 579 kts | 71° |
| 2026-05-07 08:57 | 41.23221 | 53.89102 | 36500 ft | 579 kts | 71° |
| 2026-05-07 08:57 | 41.26001 | 53.99199 | 36494 ft | 579 kts | 71° |
| 2026-05-07 08:58 | 41.28756 | 54.09244 | 36501 ft | 579 kts | 71° |
| 2026-05-07 08:58 | 41.31491 | 54.19257 | 36523 ft | 579 kts | 71° |
| 2026-05-07 08:59 | 41.34235 | 54.29344 | 36672 ft | 576 kts | 71° |
| 2026-05-07 08:59 | 41.35600 | 54.34376 | 36776 ft | 575 kts | 71° |
| 2026-05-07 08:59 | 41.36940 | 54.39329 | 36876 ft | 575 kts | 71° |
| 2026-05-07 09:00 | 41.38306 | 54.44388 | 36983 ft | 574 kts | 71° |
| 2026-05-07 09:00 | 41.39645 | 54.49354 | 37072 ft | 573 kts | 71° |
| 2026-05-07 09:00 | 41.42324 | 54.59321 | 37087 ft | 573 kts | 71° |
| 2026-05-07 09:01 | 41.44970 | 54.69207 | 37082 ft | 574 kts | 72° |
| 2026-05-07 09:01 | 41.47667 | 54.79326 | 37082 ft | 573 kts | 72° |
| 2026-05-07 09:02 | 41.50323 | 54.89331 | 37082 ft | 573 kts | 72° |
| 2026-05-07 09:02 | 41.52964 | 54.99318 | 37082 ft | 573 kts | 72° |
| 2026-05-07 09:03 | 41.55627 | 55.09433 | 37078 ft | 574 kts | 72° |
| 2026-05-07 09:03 | 41.58256 | 55.19455 | 37080 ft | 575 kts | 72° |
| 2026-05-07 09:04 | 41.60903 | 55.29591 | 37077 ft | 575 kts | 72° |
| 2026-05-07 09:04 | 41.63504 | 55.39595 | 37076 ft | 575 kts | 72° |
| 2026-05-07 09:05 | 41.66109 | 55.49651 | 37077 ft | 575 kts | 72° |
| 2026-05-07 09:05 | 41.68730 | 55.59813 | 37073 ft | 575 kts | 72° |
| 2026-05-07 09:06 | 41.71259 | 55.69661 | 37058 ft | 575 kts | 73° |
| 2026-05-07 09:06 | 41.73864 | 55.79845 | 37052 ft | 574 kts | 73° |
| 2026-05-07 09:07 | 41.76447 | 55.89990 | 37057 ft | 574 kts | 73° |
| 2026-05-07 09:07 | 41.79006 | 56.00079 | 37048 ft | 574 kts | 73° |
| 2026-05-07 09:08 | 41.81567 | 56.10223 | 37037 ft | 573 kts | 72° |
| 2026-05-07 09:08 | 41.84101 | 56.20300 | 37033 ft | 573 kts | 73° |
| 2026-05-07 09:09 | 41.86650 | 56.30483 | 37029 ft | 573 kts | 73° |
| 2026-05-07 09:09 | 41.89171 | 56.40596 | 37025 ft | 572 kts | 73° |
| 2026-05-07 09:10 | 41.91683 | 56.50718 | 37022 ft | 572 kts | 73° |
| 2026-05-07 09:10 | 41.94176 | 56.60806 | 37025 ft | 572 kts | 73° |
| 2026-05-07 09:11 | 41.96686 | 56.71007 | 37013 ft | 571 kts | 73° |
| 2026-05-07 09:11 | 41.99178 | 56.81177 | 37007 ft | 571 kts | 73° |
| 2026-05-07 09:12 | 42.01678 | 56.91427 | 37012 ft | 571 kts | 73° |
| 2026-05-07 09:12 | 42.04136 | 57.01552 | 37009 ft | 571 kts | 73° |
| 2026-05-07 09:13 | 42.06606 | 57.11768 | 37010 ft | 571 kts | 73° |
| 2026-05-07 09:13 | 42.09044 | 57.21899 | 37000 ft | 571 kts | 73° |
| 2026-05-07 09:14 | 42.11483 | 57.32078 | 36989 ft | 571 kts | 73° |
| 2026-05-07 09:14 | 42.13872 | 57.42091 | 36991 ft | 571 kts | 73° |
| 2026-05-07 09:15 | 42.16167 | 57.51750 | 36991 ft | 570 kts | 73° |
| 2026-05-07 09:15 | 42.18584 | 57.61971 | 36996 ft | 570 kts | 73° |
| 2026-05-07 09:16 | 42.20909 | 57.71846 | 36991 ft | 570 kts | 74° |
| 2026-05-07 09:16 | 42.23297 | 57.82036 | 36993 ft | 569 kts | 74° |
| 2026-05-07 09:17 | 42.25683 | 57.92260 | 36988 ft | 569 kts | 74° |
| 2026-05-07 09:17 | 42.28062 | 58.02344 | 36982 ft | 569 kts | 71° |
| 2026-05-07 09:18 | 42.31093 | 58.12230 | 36980 ft | 569 kts | 68° |
| 2026-05-07 09:18 | 42.34113 | 58.21947 | 36974 ft | 569 kts | 68° |
| 2026-05-07 09:19 | 42.37121 | 58.31752 | 36992 ft | 569 kts | 69° |
| 2026-05-07 09:19 | 42.40110 | 58.41587 | 36984 ft | 569 kts | 69° |
| 2026-05-07 09:20 | 42.43088 | 58.51453 | 36978 ft | 569 kts | 69° |
| 2026-05-07 09:20 | 42.46026 | 58.61247 | 36972 ft | 568 kts | 69° |
| 2026-05-07 09:21 | 42.48934 | 58.70983 | 36960 ft | 568 kts | 70° |
| 2026-05-07 09:21 | 42.51830 | 58.80724 | 36961 ft | 568 kts | 69° |
| 2026-05-07 09:22 | 42.54747 | 58.90577 | 36973 ft | 567 kts | 69° |
| 2026-05-07 09:22 | 42.57670 | 59.00493 | 36970 ft | 567 kts | 70° |
| 2026-05-07 09:23 | 42.60589 | 59.10431 | 36958 ft | 566 kts | 69° |
| 2026-05-07 09:23 | 42.63490 | 59.20350 | 36955 ft | 565 kts | 69° |
| 2026-05-07 09:24 | 42.66370 | 59.30234 | 36953 ft | 565 kts | 70° |
| 2026-05-07 09:24 | 42.69188 | 59.39942 | 36949 ft | 565 kts | 69° |
| 2026-05-07 09:25 | 42.72042 | 59.49815 | 36952 ft | 565 kts | 70° |
| 2026-05-07 09:25 | 42.74857 | 59.59589 | 36951 ft | 565 kts | 70° |
| 2026-05-07 09:26 | 42.77653 | 59.69336 | 36940 ft | 564 kts | 70° |
| 2026-05-07 09:26 | 42.80495 | 59.79282 | 36927 ft | 563 kts | 70° |
| 2026-05-07 09:27 | 42.83303 | 59.89145 | 36928 ft | 562 kts | 70° |
| 2026-05-07 09:28 | 42.87394 | 60.03586 | 36927 ft | 561 kts | 70° |
| 2026-05-07 09:28 | 42.90160 | 60.13399 | 36924 ft | 561 kts | 70° |
| 2026-05-07 09:29 | 42.92949 | 60.23333 | 36920 ft | 560 kts | 70° |
| 2026-05-07 09:29 | 42.95622 | 60.32887 | 36917 ft | 560 kts | 70° |
| 2026-05-07 09:30 | 42.98344 | 60.42658 | 36921 ft | 561 kts | 70° |
| 2026-05-07 09:30 | 43.01062 | 60.52453 | 36918 ft | 561 kts | 70° |
| 2026-05-07 09:31 | 43.03753 | 60.62188 | 36922 ft | 561 kts | 70° |
| 2026-05-07 09:31 | 43.06490 | 60.72130 | 36920 ft | 560 kts | 71° |
| 2026-05-07 09:32 | 43.09221 | 60.82091 | 36927 ft | 560 kts | 71° |
| 2026-05-07 09:32 | 43.11933 | 60.92021 | 36919 ft | 560 kts | 71° |
| 2026-05-07 09:33 | 43.14623 | 61.01911 | 36919 ft | 559 kts | 71° |
| 2026-05-07 09:33 | 43.17323 | 61.11878 | 36917 ft | 558 kts | 71° |
| 2026-05-07 09:34 | 43.19992 | 61.21770 | 36919 ft | 558 kts | 71° |
| 2026-05-07 09:34 | 43.22639 | 61.31623 | 36905 ft | 558 kts | 71° |
| 2026-05-07 09:35 | 43.25301 | 61.41570 | 36902 ft | 559 kts | 71° |
| 2026-05-07 09:35 | 43.27931 | 61.51439 | 36901 ft | 560 kts | 71° |
| 2026-05-07 09:36 | 43.30441 | 61.60896 | 36897 ft | 559 kts | 71° |
| 2026-05-07 09:36 | 43.33073 | 61.70852 | 36882 ft | 559 kts | 72° |
| 2026-05-07 09:37 | 43.35604 | 61.80471 | 36874 ft | 558 kts | 72° |
| 2026-05-07 09:37 | 43.37757 | 61.90819 | 36873 ft | 555 kts | 77° |
| 2026-05-07 09:38 | 43.39707 | 62.00963 | 36873 ft | 555 kts | 77° |
| 2026-05-07 09:38 | 43.41669 | 62.11249 | 36852 ft | 555 kts | 77° |
| 2026-05-07 09:39 | 43.43610 | 62.21485 | 36847 ft | 555 kts | 77° |
| 2026-05-07 09:39 | 43.45549 | 62.31768 | 36849 ft | 555 kts | 77° |
| 2026-05-07 09:40 | 43.47465 | 62.41992 | 36848 ft | 554 kts | 77° |
| 2026-05-07 09:40 | 43.49324 | 62.51961 | 36859 ft | 555 kts | 77° |
| 2026-05-07 09:41 | 43.51209 | 62.62130 | 36861 ft | 554 kts | 77° |
| 2026-05-07 09:41 | 43.53072 | 62.72234 | 36842 ft | 554 kts | 78° |
| 2026-05-07 09:42 | 43.54944 | 62.82439 | 36850 ft | 554 kts | 78° |
| 2026-05-07 09:42 | 43.56810 | 62.92672 | 36843 ft | 553 kts | 78° |
| 2026-05-07 09:43 | 43.58641 | 63.02770 | 36841 ft | 553 kts | 78° |
| 2026-05-07 09:43 | 43.60442 | 63.12756 | 36841 ft | 552 kts | 78° |
| 2026-05-07 09:44 | 43.62230 | 63.22721 | 36850 ft | 553 kts | 77° |
| 2026-05-07 09:44 | 43.64031 | 63.32814 | 36852 ft | 553 kts | 77° |
| 2026-05-07 09:45 | 43.65806 | 63.42814 | 36850 ft | 553 kts | 77° |
| 2026-05-07 09:45 | 43.67606 | 63.53016 | 36843 ft | 554 kts | 77° |
| 2026-05-07 09:46 | 43.69373 | 63.63086 | 36845 ft | 553 kts | 77° |
| 2026-05-07 09:46 | 43.71087 | 63.72904 | 36842 ft | 553 kts | 78° |
| 2026-05-07 09:47 | 43.72878 | 63.83226 | 36839 ft | 553 kts | 78° |
| 2026-05-07 09:47 | 43.74670 | 63.93612 | 36845 ft | 552 kts | 78° |
| 2026-05-07 09:48 | 43.76381 | 64.03590 | 36847 ft | 552 kts | 78° |
| 2026-05-07 09:48 | 43.78073 | 64.13510 | 36845 ft | 552 kts | 78° |
| 2026-05-07 09:49 | 43.79786 | 64.23610 | 36848 ft | 552 kts | 78° |
| 2026-05-07 09:49 | 43.81535 | 64.33982 | 36851 ft | 552 kts | 78° |
| 2026-05-07 09:50 | 43.83212 | 64.43982 | 36853 ft | 551 kts | 78° |
| 2026-05-07 09:50 | 43.84884 | 64.54018 | 36855 ft | 551 kts | 78° |
| 2026-05-07 09:51 | 43.86519 | 64.63882 | 36859 ft | 551 kts | 78° |
| 2026-05-07 09:51 | 43.88239 | 64.74326 | 36854 ft | 550 kts | 78° |
| 2026-05-07 09:52 | 43.89893 | 64.84431 | 36858 ft | 549 kts | 78° |
| 2026-05-07 09:52 | 43.91548 | 64.94593 | 36857 ft | 549 kts | 78° |
| 2026-05-07 09:53 | 43.93065 | 65.03973 | 36868 ft | 549 kts | 78° |
| 2026-05-07 09:53 | 43.94720 | 65.14257 | 36868 ft | 548 kts | 78° |
| 2026-05-07 09:54 | 43.96310 | 65.24205 | 36867 ft | 549 kts | 78° |
| 2026-05-07 09:54 | 43.97922 | 65.34341 | 36879 ft | 548 kts | 78° |
| 2026-05-07 09:55 | 43.99542 | 65.44595 | 36889 ft | 547 kts | 78° |
| 2026-05-07 09:55 | 44.01065 | 65.54302 | 36899 ft | 548 kts | 78° |
| 2026-05-07 09:56 | 44.02613 | 65.64216 | 36908 ft | 548 kts | 78° |
| 2026-05-07 09:56 | 44.04225 | 65.74611 | 36901 ft | 547 kts | 79° |
| 2026-05-07 09:57 | 44.05817 | 65.84938 | 36901 ft | 546 kts | 79° |
| 2026-05-07 09:57 | 44.07388 | 65.95198 | 36900 ft | 547 kts | 79° |
| 2026-05-07 09:58 | 44.08953 | 66.05482 | 36906 ft | 547 kts | 79° |
| 2026-05-07 09:58 | 44.10526 | 66.15886 | 36903 ft | 547 kts | 79° |
| 2026-05-07 09:59 | 44.12078 | 66.26222 | 36902 ft | 546 kts | 78° |
| 2026-05-07 09:59 | 44.13629 | 66.36618 | 36903 ft | 547 kts | 78° |
| 2026-05-07 10:00 | 44.15110 | 66.46605 | 36899 ft | 547 kts | 78° |
| 2026-05-07 10:00 | 44.16607 | 66.56769 | 36903 ft | 547 kts | 78° |
| 2026-05-07 10:01 | 44.18099 | 66.66961 | 36903 ft | 547 kts | 79° |
| 2026-05-07 10:01 | 44.19611 | 66.77362 | 36895 ft | 546 kts | 79° |
| 2026-05-07 10:02 | 44.21021 | 66.87128 | 36899 ft | 546 kts | 79° |
| 2026-05-07 10:02 | 44.22507 | 66.97485 | 36899 ft | 546 kts | 79° |
| 2026-05-07 10:03 | 44.23918 | 67.07387 | 36905 ft | 545 kts | 79° |
| 2026-05-07 10:03 | 44.25358 | 67.17557 | 36912 ft | 545 kts | 79° |
| 2026-05-07 10:04 | 44.26786 | 67.27714 | 36933 ft | 545 kts | 79° |
| 2026-05-07 10:04 | 44.28174 | 67.37650 | 36959 ft | 544 kts | 79° |
| 2026-05-07 10:05 | 44.29541 | 67.47504 | 36982 ft | 544 kts | 79° |
| 2026-05-07 10:05 | 44.30474 | 67.57792 | 36999 ft | 543 kts | 85° |
| 2026-05-07 10:06 | 44.31069 | 67.68237 | 37016 ft | 542 kts | 86° |
| 2026-05-07 10:06 | 44.31625 | 67.78413 | 37022 ft | 542 kts | 86° |
| 2026-05-07 10:07 | 44.32174 | 67.88724 | 37006 ft | 543 kts | 86° |
| 2026-05-07 10:07 | 44.32713 | 67.99091 | 36985 ft | 542 kts | 86° |
| 2026-05-07 10:08 | 44.33244 | 68.09547 | 36982 ft | 543 kts | 86° |
| 2026-05-07 10:08 | 44.33761 | 68.19900 | 36970 ft | 543 kts | 86° |
| 2026-05-07 10:09 | 44.34255 | 68.30019 | 36972 ft | 543 kts | 86° |
| 2026-05-07 10:09 | 44.34752 | 68.40384 | 36973 ft | 543 kts | 86° |
| 2026-05-07 10:10 | 44.35104 | 68.47839 | 36956 ft | 543 kts | 86° |
| 2026-05-07 10:10 | 44.35571 | 68.57903 | 36959 ft | 542 kts | 86° |
| 2026-05-07 10:11 | 44.36039 | 68.68201 | 36947 ft | 542 kts | 87° |
| 2026-05-07 10:11 | 44.36503 | 68.78622 | 36945 ft | 542 kts | 87° |
| 2026-05-07 10:12 | 44.36963 | 68.89168 | 36944 ft | 542 kts | 87° |
| 2026-05-07 10:12 | 44.37712 | 68.99175 | 36955 ft | 542 kts | 81° |
| 2026-05-07 10:13 | 44.38843 | 69.09184 | 36956 ft | 542 kts | 81° |
| 2026-05-07 10:13 | 44.39907 | 69.18896 | 36964 ft | 542 kts | 81° |
| 2026-05-07 10:14 | 44.41018 | 69.29311 | 36965 ft | 542 kts | 81° |
| 2026-05-07 10:14 | 44.42091 | 69.39580 | 36964 ft | 542 kts | 81° |
| 2026-05-07 10:15 | 44.43138 | 69.49760 | 36960 ft | 542 kts | 81° |
| 2026-05-07 10:15 | 44.44193 | 69.60132 | 36956 ft | 542 kts | 81° |
| 2026-05-07 10:16 | 44.45214 | 69.70290 | 36949 ft | 542 kts | 82° |
| 2026-05-07 10:16 | 44.46227 | 69.80486 | 36951 ft | 541 kts | 82° |
| 2026-05-07 10:17 | 44.47253 | 69.90908 | 36955 ft | 541 kts | 82° |
| 2026-05-07 10:17 | 44.48256 | 70.01194 | 36961 ft | 541 kts | 82° |
| 2026-05-07 10:18 | 44.49250 | 70.11492 | 36963 ft | 540 kts | 82° |
| 2026-05-07 10:18 | 44.50223 | 70.21681 | 36969 ft | 540 kts | 82° |
| 2026-05-07 10:19 | 44.51173 | 70.31715 | 36966 ft | 540 kts | 82° |
| 2026-05-07 10:19 | 44.52094 | 70.41531 | 36965 ft | 540 kts | 82° |
| 2026-05-07 10:20 | 44.53054 | 70.51874 | 36967 ft | 540 kts | 82° |
| 2026-05-07 10:20 | 44.53981 | 70.61955 | 36971 ft | 540 kts | 82° |
| 2026-05-07 10:21 | 44.54933 | 70.72425 | 36967 ft | 539 kts | 83° |
| 2026-05-07 10:21 | 44.55854 | 70.82644 | 36965 ft | 539 kts | 82° |
| 2026-05-07 10:22 | 44.56789 | 70.93139 | 36971 ft | 539 kts | 83° |
| 2026-05-07 10:22 | 44.57686 | 71.03311 | 36971 ft | 539 kts | 83° |
| 2026-05-07 10:23 | 44.58602 | 71.13810 | 36971 ft | 538 kts | 82° |
| 2026-05-07 10:23 | 44.59493 | 71.24116 | 36978 ft | 538 kts | 83° |
| 2026-05-07 10:24 | 44.60386 | 71.34579 | 36979 ft | 538 kts | 83° |
| 2026-05-07 10:24 | 44.61214 | 71.44383 | 36977 ft | 538 kts | 83° |
| 2026-05-07 10:25 | 44.62069 | 71.54613 | 36979 ft | 538 kts | 83° |
| 2026-05-07 10:25 | 44.62899 | 71.64655 | 36980 ft | 538 kts | 82° |
| 2026-05-07 10:26 | 44.63746 | 71.74997 | 36976 ft | 537 kts | 83° |
| 2026-05-07 10:26 | 44.64578 | 71.85291 | 36975 ft | 537 kts | 83° |
| 2026-05-07 10:27 | 44.65405 | 71.95647 | 36976 ft | 537 kts | 83° |
| 2026-05-07 10:27 | 44.66213 | 72.05875 | 36980 ft | 537 kts | 83° |
| 2026-05-07 10:28 | 44.66999 | 72.15942 | 36978 ft | 537 kts | 83° |
| 2026-05-07 10:28 | 44.67765 | 72.25854 | 36982 ft | 536 kts | 83° |
| 2026-05-07 10:29 | 44.68538 | 72.35991 | 36981 ft | 536 kts | 83° |
| 2026-05-07 10:29 | 44.69310 | 72.46233 | 36988 ft | 536 kts | 83° |
| 2026-05-07 10:30 | 44.70462 | 72.61735 | 36992 ft | 535 kts | 83° |
| 2026-05-07 10:30 | 44.71207 | 72.71933 | 36989 ft | 534 kts | 84° |
| 2026-05-07 10:31 | 44.71953 | 72.82267 | 36996 ft | 533 kts | 84° |
| 2026-05-07 10:31 | 44.72671 | 72.92347 | 37000 ft | 533 kts | 84° |
| 2026-05-07 10:32 | 44.73380 | 73.02406 | 37005 ft | 533 kts | 84° |
| 2026-05-07 10:32 | 44.74081 | 73.12500 | 37024 ft | 532 kts | 84° |
| 2026-05-07 10:33 | 44.74785 | 73.22757 | 37032 ft | 532 kts | 84° |
| 2026-05-07 10:33 | 44.75481 | 73.33048 | 37040 ft | 532 kts | 84° |
| 2026-05-07 10:34 | 44.76168 | 73.43333 | 37039 ft | 532 kts | 84° |
| 2026-05-07 10:34 | 44.76845 | 73.53617 | 37041 ft | 532 kts | 84° |
| 2026-05-07 10:35 | 44.77519 | 73.64000 | 37030 ft | 532 kts | 84° |
| 2026-05-07 10:35 | 44.78188 | 73.74457 | 37022 ft | 531 kts | 84° |
| 2026-05-07 10:36 | 44.78829 | 73.84617 | 37024 ft | 531 kts | 84° |
| 2026-05-07 10:36 | 44.79462 | 73.94798 | 37018 ft | 530 kts | 84° |
| 2026-05-07 10:37 | 44.80054 | 74.04454 | 37020 ft | 529 kts | 84° |
| 2026-05-07 10:37 | 44.80680 | 74.14806 | 37012 ft | 529 kts | 84° |
| 2026-05-07 10:38 | 44.81297 | 74.25172 | 37013 ft | 529 kts | 84° |
| 2026-05-07 10:38 | 44.81903 | 74.35517 | 37007 ft | 529 kts | 84° |
| 2026-05-07 10:39 | 44.82496 | 74.45800 | 37008 ft | 529 kts | 84° |
| 2026-05-07 10:39 | 44.83080 | 74.56077 | 37007 ft | 529 kts | 84° |
| 2026-05-07 10:40 | 44.84580 | 74.66151 | 37015 ft | 527 kts | 73° |
| 2026-05-07 10:40 | 44.86649 | 74.76073 | 37008 ft | 527 kts | 73° |
| 2026-05-07 10:41 | 44.88694 | 74.86042 | 37162 ft | 528 kts | 73° |
| 2026-05-07 10:41 | 44.89698 | 74.90992 | 37013 ft | 525 kts | 73° |
| 2026-05-07 10:41 | 44.90699 | 74.95961 | 37006 ft | 525 kts | 73° |
| 2026-05-07 10:42 | 44.92677 | 75.05846 | 37010 ft | 524 kts | 73° |
| 2026-05-07 10:42 | 44.94638 | 75.15730 | 37067 ft | 523 kts | 73° |
| 2026-05-07 10:43 | 44.96600 | 75.25680 | 37112 ft | 523 kts | 73° |
| 2026-05-07 10:43 | 44.98535 | 75.35564 | 37109 ft | 524 kts | 73° |
| 2026-05-07 10:44 | 44.99512 | 75.40570 | 37003 ft | 521 kts | 73° |
| 2026-05-07 10:44 | 45.00468 | 75.45488 | 37111 ft | 522 kts | 73° |
| 2026-05-07 10:44 | 45.02385 | 75.55379 | 37109 ft | 524 kts | 73° |
| 2026-05-07 10:45 | 45.04297 | 75.65301 | 37105 ft | 525 kts | 74° |
| 2026-05-07 10:45 | 45.06198 | 75.75221 | 37108 ft | 524 kts | 74° |
| 2026-05-07 10:46 | 45.08117 | 75.85283 | 37108 ft | 525 kts | 74° |
| 2026-05-07 10:46 | 45.10017 | 75.95299 | 37109 ft | 525 kts | 74° |
| 2026-05-07 10:47 | 45.11900 | 76.05276 | 37114 ft | 525 kts | 74° |
| 2026-05-07 10:47 | 45.13786 | 76.15326 | 37111 ft | 525 kts | 74° |
| 2026-05-07 10:48 | 45.15651 | 76.25316 | 37113 ft | 525 kts | 74° |
| 2026-05-07 10:48 | 45.17512 | 76.35341 | 37111 ft | 524 kts | 74° |
| 2026-05-07 10:49 | 45.19363 | 76.45363 | 37114 ft | 524 kts | 74° |
| 2026-05-07 10:49 | 45.21195 | 76.55335 | 37116 ft | 524 kts | 74° |
| 2026-05-07 10:50 | 45.22109 | 76.60332 | 37404 ft | 524 kts | 74° |
| 2026-05-07 10:50 | 45.23033 | 76.65401 | 37238 ft | 526 kts | 75° |
| 2026-05-07 10:50 | 45.23951 | 76.70439 | 37118 ft | 524 kts | 75° |
| 2026-05-07 10:50 | 45.24861 | 76.75458 | 37112 ft | 523 kts | 75° |
| 2026-05-07 10:51 | 45.26652 | 76.85368 | 37113 ft | 522 kts | 75° |
| 2026-05-07 10:51 | 45.28364 | 76.94894 | 37114 ft | 522 kts | 75° |
| 2026-05-07 10:52 | 45.30156 | 77.04915 | 37115 ft | 522 kts | 75° |
| 2026-05-07 10:52 | 45.31924 | 77.14857 | 37115 ft | 522 kts | 74° |
| 2026-05-07 10:53 | 45.33700 | 77.24901 | 37109 ft | 522 kts | 75° |
| 2026-05-07 10:53 | 45.35464 | 77.34934 | 37111 ft | 522 kts | 75° |
| 2026-05-07 10:54 | 45.37222 | 77.44984 | 37112 ft | 522 kts | 74° |
| 2026-05-07 10:54 | 45.38971 | 77.55046 | 37123 ft | 521 kts | 74° |
| 2026-05-07 10:55 | 45.40703 | 77.65060 | 37129 ft | 521 kts | 75° |
| 2026-05-07 10:55 | 45.42442 | 77.75178 | 37131 ft | 521 kts | 75° |
| 2026-05-07 10:56 | 45.44149 | 77.85164 | 37139 ft | 521 kts | 75° |
| 2026-05-07 10:56 | 45.45856 | 77.95208 | 36894 ft | 520 kts | 75° |
| 2026-05-07 10:57 | 45.46705 | 78.00230 | 37157 ft | 518 kts | 75° |
| 2026-05-07 10:57 | 45.47557 | 78.05276 | 37158 ft | 520 kts | 75° |
| 2026-05-07 10:57 | 45.49229 | 78.15229 | 37152 ft | 521 kts | 75° |
| 2026-05-07 10:58 | 45.50897 | 78.25213 | 37156 ft | 521 kts | 75° |
| 2026-05-07 10:58 | 45.52557 | 78.35211 | 37153 ft | 521 kts | 75° |
| 2026-05-07 10:59 | 45.54223 | 78.45304 | 37162 ft | 521 kts | 75° |
| 2026-05-07 10:59 | 45.55841 | 78.55163 | 37163 ft | 521 kts | 75° |
| 2026-05-07 11:00 | 45.57475 | 78.65174 | 37175 ft | 521 kts | 75° |
| 2026-05-07 11:00 | 45.58295 | 78.70226 | 36994 ft | 523 kts | 75° |
| 2026-05-07 11:00 | 45.59115 | 78.75290 | 37188 ft | 520 kts | 76° |
| 2026-05-07 11:01 | 45.60741 | 78.85381 | 37188 ft | 520 kts | 75° |
| 2026-05-07 11:01 | 45.62348 | 78.95407 | 37196 ft | 520 kts | 75° |
| 2026-05-07 11:02 | 45.63954 | 79.05490 | 37204 ft | 519 kts | 75° |
| 2026-05-07 11:02 | 45.65555 | 79.15607 | 37204 ft | 519 kts | 75° |
| 2026-05-07 11:03 | 45.67139 | 79.25674 | 37231 ft | 519 kts | 75° |
| 2026-05-07 11:03 | 45.68713 | 79.35741 | 37213 ft | 519 kts | 75° |
| 2026-05-07 11:04 | 45.70278 | 79.45810 | 37222 ft | 520 kts | 75° |
| 2026-05-07 11:04 | 45.71041 | 79.50743 | 37520 ft | 519 kts | 75° |
| 2026-05-07 11:04 | 45.71821 | 79.55803 | 37425 ft | 520 kts | 75° |
| 2026-05-07 11:05 | 45.72602 | 79.60882 | 37290 ft | 521 kts | 75° |
| 2026-05-07 11:05 | 45.73382 | 79.65973 | 37212 ft | 519 kts | 76° |
| 2026-05-07 11:05 | 45.74920 | 79.76059 | 37244 ft | 518 kts | 76° |
| 2026-05-07 11:06 | 45.76447 | 79.86136 | 37195 ft | 519 kts | 76° |
| 2026-05-07 11:06 | 45.77954 | 79.96146 | 37231 ft | 518 kts | 76° |